sensor_id;sensor_type;location;lat;lon;timestamp;P1;durP1;ratioP1;P2;durP2;ratioP2
36833;SDS011;48003;52.084;5.224;2024-03-23T00:51:31;29.2;;;8.6;;
36833;SDS011;48003;52.084;5.224;2024-03-23T00:54:43;21.4;;;7.8;;
36833;SDS011;48003;52.084;5.224;2024-03-23T00:56:19;27.7;;;8.2;;
36833;SDS011;48003;52.084;5.224;2024-03-23T00:57:55;25.2;;;8.4;;
36833;SDS011;48003;52.084;5.224;2024-03-23T00:59:31;24.5;;;7.4;;
36833;SDS011;48003;52.084;5.224;2024-03-23T01:02:43;27.8;;;8.6;;
36833;SDS011;48003;52.084;5.224;2024-03-23T01:04:20;22.5;;;7.5;;
36833;SDS011;48003;52.084;5.224;2024-03-23T01:05:58;23.9;;;8.0;;
36833;SDS011;48003;52.084;5.224;2024-03-23T01:09:12;26.9;;;7.4;;
36833;SDS011;48003;52.084;5.224;2024-03-23T01:10:53;23.9;;;7.7;;
36833;SDS011;48003;52.084;5.224;2024-03-23T01:12:30;25.5;;;8.1;;
36833;SDS011;48003;52.084;5.224;2024-03-23T01:15:47;25.8;;;7.5;;
36833;SDS011;48003;52.084;5.224;2024-03-23T01:17:24;21.4;;;7.5;;
36833;SDS011;48003;52.084;5.224;2024-03-23T01:19:00;25.6;;;7.8;;
36833;SDS011;48003;52.084;5.224;2024-03-23T01:20:36;29.0;;;7.7;;
36833;SDS011;48003;52.084;5.224;2024-03-23T01:23:48;21.1;;;7.2;;
36833;SDS011;48003;52.084;5.224;2024-03-23T01:25:24;24.0;;;7.1;;
36833;SDS011;48003;52.084;5.224;2024-03-23T01:27:01;22.1;;;6.9;;
36833;SDS011;48003;52.084;5.224;2024-03-23T01:30:13;24.5;;;7.3;;
36833;SDS011;48003;52.084;5.224;2024-03-23T01:31:49;29.5;;;7.1;;
36833;SDS011;48003;52.084;5.224;2024-03-23T01:33:25;22.1;;;6.9;;
36833;SDS011;48003;52.084;5.224;2024-03-23T01:36:37;21.0;;;7.4;;
36833;SDS011;48003;52.084;5.224;2024-03-23T01:38:13;24.7;;;7.0;;
36833;SDS011;48003;52.084;5.224;2024-03-23T01:39:49;23.6;;;7.3;;
36833;SDS011;48003;52.084;5.224;2024-03-23T01:41:25;21.9;;;6.9;;
36833;SDS011;48003;52.084;5.224;2024-03-23T01:44:41;22.6;;;7.1;;
36833;SDS011;48003;52.084;5.224;2024-03-23T01:46:17;22.8;;;7.3;;
36833;SDS011;48003;52.084;5.224;2024-03-23T01:47:53;24.2;;;7.0;;
36833;SDS011;48003;52.084;5.224;2024-03-23T01:51:05;26.2;;;7.0;;
36833;SDS011;48003;52.084;5.224;2024-03-23T01:52:42;22.4;;;7.3;;
36833;SDS011;48003;52.084;5.224;2024-03-23T01:54:18;22.1;;;7.2;;
36833;SDS011;48003;52.084;5.224;2024-03-23T01:57:31;24.3;;;7.4;;
36833;SDS011;48003;52.084;5.224;2024-03-23T01:59:08;28.5;;;7.6;;
36833;SDS011;48003;52.084;5.224;2024-03-23T02:00:44;28.5;;;7.6;;
36833;SDS011;48003;52.084;5.224;2024-03-23T02:02:20;25.3;;;7.8;;
36833;SDS011;48003;52.084;5.224;2024-03-23T02:05:33;25.0;;;7.3;;
36833;SDS011;48003;52.084;5.224;2024-03-23T02:07:09;26.4;;;7.6;;
36833;SDS011;48003;52.084;5.224;2024-03-23T02:08:45;25.0;;;7.2;;
36833;SDS011;48003;52.084;5.224;2024-03-23T02:11:57;26.1;;;7.4;;
36833;SDS011;48003;52.084;5.224;2024-03-23T02:13:33;27.1;;;7.6;;
36833;SDS011;48003;52.084;5.224;2024-03-23T02:15:10;30.6;;;8.2;;
36833;SDS011;48003;52.084;5.224;2024-03-23T02:18:22;24.9;;;6.7;;
36833;SDS011;48003;52.084;5.224;2024-03-23T02:19:58;26.1;;;7.9;;
36833;SDS011;48003;52.084;5.224;2024-03-23T02:21:35;21.5;;;6.7;;
36833;SDS011;48003;52.084;5.224;2024-03-23T02:23:12;28.4;;;8.1;;
36833;SDS011;48003;52.084;5.224;2024-03-23T02:26:25;25.6;;;7.4;;
36833;SDS011;48003;52.084;5.224;2024-03-23T02:28:01;24.9;;;7.1;;
36833;SDS011;48003;52.084;5.224;2024-03-23T02:29:37;19.0;;;6.3;;
36833;SDS011;48003;52.084;5.224;2024-03-23T02:32:50;25.9;;;6.8;;
36833;SDS011;48003;52.084;5.224;2024-03-23T02:34:26;20.8;;;6.9;;
36833;SDS011;48003;52.084;5.224;2024-03-23T02:36:02;25.3;;;7.1;;
36833;SDS011;48003;52.084;5.224;2024-03-23T02:39:14;16.61;;;6.0;;
36833;SDS011;48003;52.084;5.224;2024-03-23T02:40:50;24.1;;;6.6;;
36833;SDS011;48003;52.084;5.224;2024-03-23T02:42:26;20.11;;;6.4;;
36833;SDS011;48003;52.084;5.224;2024-03-23T02:45:38;25.8;;;6.8;;
36833;SDS011;48003;52.084;5.224;2024-03-23T02:47:14;19.11;;;6.1;;
36833;SDS011;48003;52.084;5.224;2024-03-23T02:48:50;21.5;;;6.1;;
36833;SDS011;48003;52.084;5.224;2024-03-23T02:50:27;21.7;;;6.2;;
36833;SDS011;48003;52.084;5.224;2024-03-23T02:53:39;26.3;;;6.1;;
36833;SDS011;48003;52.084;5.224;2024-03-23T02:55:15;17.91;;;5.8;;
36833;SDS011;48003;52.084;5.224;2024-03-23T02:56:51;15.8;;;5.6;;
36833;SDS011;48003;52.084;5.224;2024-03-23T03:00:04;20.3;;;5.9;;
36833;SDS011;48003;52.084;5.224;2024-03-23T03:01:40;21.8;;;6.2;;
36833;SDS011;48003;52.084;5.224;2024-03-23T03:03:16;15.2;;;5.6;;
36833;SDS011;48003;52.084;5.224;2024-03-23T03:06:31;20.8;;;6.5;;
36833;SDS011;48003;52.084;5.224;2024-03-23T03:08:07;19.61;;;5.7;;
36833;SDS011;48003;52.084;5.224;2024-03-23T03:09:43;17.41;;;5.7;;
36833;SDS011;48003;52.084;5.224;2024-03-23T03:11:19;18.0;;;5.9;;
36833;SDS011;48003;52.084;5.224;2024-03-23T03:14:31;20.11;;;6.1;;
36833;SDS011;48003;52.084;5.224;2024-03-23T03:16:08;24.7;;;5.6;;
36833;SDS011;48003;52.084;5.224;2024-03-23T03:17:44;19.11;;;5.7;;
36833;SDS011;48003;52.084;5.224;2024-03-23T03:20:56;20.8;;;5.5;;
36833;SDS011;48003;52.084;5.224;2024-03-23T03:22:33;18.11;;;5.6;;
36833;SDS011;48003;52.084;5.224;2024-03-23T03:24:09;18.11;;;5.3;;
36833;SDS011;48003;52.084;5.224;2024-03-23T03:27:21;21.9;;;5.3;;
36833;SDS011;48003;52.084;5.224;2024-03-23T03:28:57;20.41;;;5.0;;
36833;SDS011;48003;52.084;5.224;2024-03-23T03:30:33;17.11;;;5.0;;
36833;SDS011;48003;52.084;5.224;2024-03-23T03:33:45;21.0;;;4.8;;
36833;SDS011;48003;52.084;5.224;2024-03-23T03:35:21;20.3;;;5.11;;
36833;SDS011;48003;52.084;5.224;2024-03-23T03:36:57;15.1;;;4.8;;
36833;SDS011;48003;52.084;5.224;2024-03-23T03:38:34;19.41;;;5.6;;
36833;SDS011;48003;52.084;5.224;2024-03-23T03:41:48;18.8;;;5.0;;
36833;SDS011;48003;52.084;5.224;2024-03-23T03:43:24;18.11;;;4.7;;
36833;SDS011;48003;52.084;5.224;2024-03-23T03:45:00;18.3;;;4.91;;
36833;SDS011;48003;52.084;5.224;2024-03-23T03:48:12;16.5;;;4.7;;
36833;SDS011;48003;52.084;5.224;2024-03-23T03:49:48;16.0;;;4.2;;
36833;SDS011;48003;52.084;5.224;2024-03-23T03:51:24;15.7;;;4.7;;
36833;SDS011;48003;52.084;5.224;2024-03-23T03:54:37;22.6;;;4.8;;
36833;SDS011;48003;52.084;5.224;2024-03-23T03:56:13;18.91;;;4.3;;
36833;SDS011;48003;52.084;5.224;2024-03-23T03:57:49;21.6;;;4.7;;
36833;SDS011;48003;52.084;5.224;2024-03-23T03:59:25;15.0;;;4.1;;
36833;SDS011;48003;52.084;5.224;2024-03-23T04:02:38;14.3;;;4.2;;
36833;SDS011;48003;52.084;5.224;2024-03-23T04:04:14;17.41;;;4.3;;
36833;SDS011;48003;52.084;5.224;2024-03-23T04:05:51;17.61;;;4.61;;
36833;SDS011;48003;52.084;5.224;2024-03-23T04:09:03;20.0;;;4.5;;
36833;SDS011;48003;52.084;5.224;2024-03-23T04:10:39;17.5;;;4.5;;
36833;SDS011;48003;52.084;5.224;2024-03-23T04:12:15;16.0;;;3.7;;
36833;SDS011;48003;52.084;5.224;2024-03-23T04:15:28;17.8;;;4.41;;
36833;SDS011;48003;52.084;5.224;2024-03-23T04:17:04;16.3;;;3.9;;
36833;SDS011;48003;52.084;5.224;2024-03-23T04:18:40;12.2;;;3.4;;
36833;SDS011;48003;52.084;5.224;2024-03-23T04:21:52;19.0;;;3.8;;
36833;SDS011;48003;52.084;5.224;2024-03-23T04:23:28;16.2;;;3.3;;
36833;SDS011;48003;52.084;5.224;2024-03-23T04:25:05;16.7;;;3.6;;
36833;SDS011;48003;52.084;5.224;2024-03-23T04:26:41;17.5;;;3.4;;
36833;SDS011;48003;52.084;5.224;2024-03-23T04:29:55;12.8;;;3.1;;
36833;SDS011;48003;52.084;5.224;2024-03-23T04:31:31;13.9;;;3.5;;
36833;SDS011;48003;52.084;5.224;2024-03-23T04:33:07;15.4;;;3.8;;
36833;SDS011;48003;52.084;5.224;2024-03-23T04:36:20;14.2;;;3.5;;
36833;SDS011;48003;52.084;5.224;2024-03-23T04:37:56;13.7;;;3.4;;
36833;SDS011;48003;52.084;5.224;2024-03-23T04:39:32;14.7;;;3.0;;
36833;SDS011;48003;52.084;5.224;2024-03-23T04:42:44;14.9;;;3.1;;
36833;SDS011;48003;52.084;5.224;2024-03-23T04:44:20;12.8;;;3.0;;
36833;SDS011;48003;52.084;5.224;2024-03-23T04:45:57;14.5;;;3.0;;
36833;SDS011;48003;52.084;5.224;2024-03-23T04:47:33;13.3;;;3.2;;
36833;SDS011;48003;52.084;5.224;2024-03-23T04:50:45;15.5;;;3.2;;
36833;SDS011;48003;52.084;5.224;2024-03-23T04:52:21;12.9;;;2.8;;
36833;SDS011;48003;52.084;5.224;2024-03-23T04:53:57;14.1;;;2.4;;
36833;SDS011;48003;52.084;5.224;2024-03-23T04:57:09;12.8;;;2.31;;
36833;SDS011;48003;52.084;5.224;2024-03-23T04:58:45;16.61;;;2.7;;
36833;SDS011;48003;52.084;5.224;2024-03-23T05:00:21;13.6;;;2.6;;
36833;SDS011;48003;52.084;5.224;2024-03-23T05:03:33;11.5;;;2.6;;
36833;SDS011;48003;52.084;5.224;2024-03-23T05:05:09;11.7;;;2.7;;
36833;SDS011;48003;52.084;5.224;2024-03-23T05:06:45;14.5;;;2.7;;
36833;SDS011;48003;52.084;5.224;2024-03-23T05:09:57;8.81;;;2.31;;
36833;SDS011;48003;52.084;5.224;2024-03-23T05:11:33;9.81;;;2.4;;
36833;SDS011;48003;52.084;5.224;2024-03-23T05:13:09;14.4;;;2.31;;
36833;SDS011;48003;52.084;5.224;2024-03-23T05:14:45;12.9;;;2.5;;
36833;SDS011;48003;52.084;5.224;2024-03-23T05:17:57;13.8;;;2.8;;
36833;SDS011;48003;52.084;5.224;2024-03-23T05:19:34;12.3;;;2.1;;
36833;SDS011;48003;52.084;5.224;2024-03-23T05:21:10;14.0;;;2.21;;
36833;SDS011;48003;52.084;5.224;2024-03-23T05:24:22;12.2;;;2.21;;
36833;SDS011;48003;52.084;5.224;2024-03-23T05:25:58;9.5;;;2.0;;
36833;SDS011;48003;52.084;5.224;2024-03-23T05:27:34;13.9;;;2.31;;
36833;SDS011;48003;52.084;5.224;2024-03-23T05:30:49;11.7;;;2.0;;
36833;SDS011;48003;52.084;5.224;2024-03-23T05:32:26;8.71;;;1.9;;
36833;SDS011;48003;52.084;5.224;2024-03-23T05:34:02;10.9;;;2.0;;
36833;SDS011;48003;52.084;5.224;2024-03-23T05:35:38;10.7;;;2.1;;
36833;SDS011;48003;52.084;5.224;2024-03-23T05:38:51;9.31;;;1.7;;
36833;SDS011;48003;52.084;5.224;2024-03-23T05:40:27;11.9;;;2.0;;
36833;SDS011;48003;52.084;5.224;2024-03-23T05:42:03;12.4;;;2.1;;
36833;SDS011;48003;52.084;5.224;2024-03-23T05:45:15;9.5;;;1.9;;
36833;SDS011;48003;52.084;5.224;2024-03-23T05:46:51;11.0;;;1.9;;
36833;SDS011;48003;52.084;5.224;2024-03-23T05:48:27;7.2;;;1.6;;
36833;SDS011;48003;52.084;5.224;2024-03-23T05:51:40;12.4;;;1.9;;
36833;SDS011;48003;52.084;5.224;2024-03-23T05:53:17;11.8;;;2.0;;
36833;SDS011;48003;52.084;5.224;2024-03-23T05:54:54;8.9;;;1.7;;
36833;SDS011;48003;52.084;5.224;2024-03-23T05:58:06;10.4;;;1.9;;
36833;SDS011;48003;52.084;5.224;2024-03-23T05:59:42;10.21;;;2.0;;
36833;SDS011;48003;52.084;5.224;2024-03-23T06:01:18;14.1;;;1.8;;
36833;SDS011;48003;52.084;5.224;2024-03-23T06:02:54;11.5;;;1.7;;
36833;SDS011;48003;52.084;5.224;2024-03-23T06:06:06;12.7;;;2.21;;
36833;SDS011;48003;52.084;5.224;2024-03-23T06:07:42;10.5;;;1.9;;
36833;SDS011;48003;52.084;5.224;2024-03-23T06:09:19;11.1;;;2.21;;
36833;SDS011;48003;52.084;5.224;2024-03-23T06:12:31;10.5;;;2.0;;
36833;SDS011;48003;52.084;5.224;2024-03-23T06:14:07;10.8;;;1.8;;
36833;SDS011;48003;52.084;5.224;2024-03-23T06:15:43;10.8;;;1.8;;
36833;SDS011;48003;52.084;5.224;2024-03-23T06:18:55;8.31;;;1.7;;
36833;SDS011;48003;52.084;5.224;2024-03-23T06:20:31;13.9;;;2.0;;
36833;SDS011;48003;52.084;5.224;2024-03-23T06:22:07;10.1;;;2.0;;
36833;SDS011;48003;52.084;5.224;2024-03-23T06:23:44;12.5;;;1.8;;
36833;SDS011;48003;52.084;5.224;2024-03-23T06:26:57;10.0;;;1.9;;
36833;SDS011;48003;52.084;5.224;2024-03-23T06:28:33;8.2;;;1.8;;
36833;SDS011;48003;52.084;5.224;2024-03-23T06:30:09;10.1;;;2.0;;
36833;SDS011;48003;52.084;5.224;2024-03-23T06:33:29;7.2;;;1.5;;
36833;SDS011;48003;52.084;5.224;2024-03-23T06:35:05;12.0;;;2.0;;
36833;SDS011;48003;52.084;5.224;2024-03-23T06:36:42;10.7;;;1.9;;
36833;SDS011;48003;52.084;5.224;2024-03-23T06:39:55;12.0;;;2.0;;
36833;SDS011;48003;52.084;5.224;2024-03-23T06:41:30;9.81;;;1.7;;
36833;SDS011;48003;52.084;5.224;2024-03-23T06:43:07;10.3;;;2.21;;
36833;SDS011;48003;52.084;5.224;2024-03-23T06:44:43;11.4;;;2.6;;
36833;SDS011;48003;52.084;5.224;2024-03-23T06:47:55;11.2;;;2.21;;
36833;SDS011;48003;52.084;5.224;2024-03-23T06:49:31;9.31;;;2.21;;
36833;SDS011;48003;52.084;5.224;2024-03-23T06:51:07;11.0;;;2.31;;
36833;SDS011;48003;52.084;5.224;2024-03-23T06:54:20;10.9;;;2.4;;
36833;SDS011;48003;52.084;5.224;2024-03-23T06:55:56;9.9;;;2.4;;
36833;SDS011;48003;52.084;5.224;2024-03-23T06:57:32;7.3;;;1.9;;
36833;SDS011;48003;52.084;5.224;2024-03-23T07:00:44;8.9;;;2.1;;
36833;SDS011;48003;52.084;5.224;2024-03-23T07:02:20;17.11;;;2.7;;
36833;SDS011;48003;52.084;5.224;2024-03-23T07:03:56;13.2;;;2.0;;
36833;SDS011;48003;52.084;5.224;2024-03-23T07:07:08;10.4;;;2.31;;
36833;SDS011;48003;52.084;5.224;2024-03-23T07:08:44;12.2;;;2.7;;
36833;SDS011;48003;52.084;5.224;2024-03-23T07:10:20;12.8;;;2.5;;
36833;SDS011;48003;52.084;5.224;2024-03-23T07:11:56;10.5;;;2.6;;
36833;SDS011;48003;52.084;5.224;2024-03-23T07:15:09;9.5;;;2.21;;
36833;SDS011;48003;52.084;5.224;2024-03-23T07:16:45;8.1;;;2.5;;
36833;SDS011;48003;52.084;5.224;2024-03-23T07:18:22;16.4;;;2.8;;
36833;SDS011;48003;52.084;5.224;2024-03-23T07:21:35;10.21;;;2.21;;
36833;SDS011;48003;52.084;5.224;2024-03-23T07:23:11;10.3;;;2.6;;
36833;SDS011;48003;52.084;5.224;2024-03-23T07:24:47;17.41;;;2.6;;
36833;SDS011;48003;52.084;5.224;2024-03-23T07:28:00;12.3;;;2.5;;
36833;SDS011;48003;52.084;5.224;2024-03-23T07:29:36;13.3;;;3.0;;
36833;SDS011;48003;52.084;5.224;2024-03-23T07:31:12;13.8;;;2.6;;
36833;SDS011;48003;52.084;5.224;2024-03-23T07:32:49;12.9;;;3.0;;
36833;SDS011;48003;52.084;5.224;2024-03-23T07:36:01;13.2;;;2.4;;
36833;SDS011;48003;52.084;5.224;2024-03-23T07:37:38;9.21;;;2.31;;
36833;SDS011;48003;52.084;5.224;2024-03-23T07:39:14;18.11;;;2.5;;
36833;SDS011;48003;52.084;5.224;2024-03-23T07:42:26;11.2;;;2.7;;
36833;SDS011;48003;52.084;5.224;2024-03-23T07:44:05;11.2;;;2.6;;
36833;SDS011;48003;52.084;5.224;2024-03-23T07:45:41;15.9;;;2.4;;
36833;SDS011;48003;52.084;5.224;2024-03-23T07:48:53;9.81;;;2.21;;
36833;SDS011;48003;52.084;5.224;2024-03-23T07:50:29;11.5;;;2.31;;
36833;SDS011;48003;52.084;5.224;2024-03-23T07:52:05;8.4;;;2.0;;
36833;SDS011;48003;52.084;5.224;2024-03-23T07:53:42;15.8;;;2.31;;
36833;SDS011;48003;52.084;5.224;2024-03-23T07:56:55;8.6;;;2.31;;
36833;SDS011;48003;52.084;5.224;2024-03-23T07:58:32;14.2;;;2.31;;
36833;SDS011;48003;52.084;5.224;2024-03-23T08:00:09;10.4;;;2.1;;
36833;SDS011;48003;52.084;5.224;2024-03-23T08:03:22;14.0;;;2.5;;
36833;SDS011;48003;52.084;5.224;2024-03-23T08:04:58;10.3;;;1.9;;
36833;SDS011;48003;52.084;5.224;2024-03-23T08:06:34;10.9;;;2.21;;
36833;SDS011;48003;52.084;5.224;2024-03-23T08:09:46;15.0;;;2.21;;
36833;SDS011;48003;52.084;5.224;2024-03-23T08:11:22;14.9;;;2.1;;
36833;SDS011;48003;52.084;5.224;2024-03-23T08:12:58;9.81;;;2.31;;
36833;SDS011;48003;52.084;5.224;2024-03-23T08:14:36;10.7;;;1.8;;
36833;SDS011;48003;52.084;5.224;2024-03-23T08:17:48;9.5;;;1.8;;
36833;SDS011;48003;52.084;5.224;2024-03-23T08:19:25;12.6;;;2.0;;
36833;SDS011;48003;52.084;5.224;2024-03-23T08:21:01;13.6;;;2.21;;
36833;SDS011;48003;52.084;5.224;2024-03-23T08:24:15;13.6;;;2.31;;
36833;SDS011;48003;52.084;5.224;2024-03-23T08:25:51;12.3;;;2.31;;
36833;SDS011;48003;52.084;5.224;2024-03-23T08:27:28;8.9;;;1.8;;
36833;SDS011;48003;52.084;5.224;2024-03-23T08:30:41;9.9;;;2.21;;
36833;SDS011;48003;52.084;5.224;2024-03-23T08:32:17;8.81;;;2.21;;
36833;SDS011;48003;52.084;5.224;2024-03-23T08:33:53;10.7;;;2.1;;
36833;SDS011;48003;52.084;5.224;2024-03-23T08:37:05;10.21;;;2.1;;
36833;SDS011;48003;52.084;5.224;2024-03-23T08:38:41;8.6;;;2.1;;
36833;SDS011;48003;52.084;5.224;2024-03-23T08:40:18;10.9;;;1.8;;
36833;SDS011;48003;52.084;5.224;2024-03-23T08:41:53;9.21;;;1.7;;
36833;SDS011;48003;52.084;5.224;2024-03-23T08:45:08;7.8;;;1.4;;
36833;SDS011;48003;52.084;5.224;2024-03-23T08:46:44;12.6;;;1.9;;
36833;SDS011;48003;52.084;5.224;2024-03-23T08:48:20;11.4;;;1.7;;
36833;SDS011;48003;52.084;5.224;2024-03-23T08:51:32;9.6;;;1.6;;
36833;SDS011;48003;52.084;5.224;2024-03-23T08:53:08;9.9;;;1.4;;
36833;SDS011;48003;52.084;5.224;2024-03-23T08:54:44;8.71;;;1.6;;
36833;SDS011;48003;52.084;5.224;2024-03-23T08:57:56;9.71;;;2.1;;
36833;SDS011;48003;52.084;5.224;2024-03-23T08:59:32;9.81;;;1.6;;
36833;SDS011;48003;52.084;5.224;2024-03-23T09:01:09;8.71;;;1.5;;
36833;SDS011;48003;52.084;5.224;2024-03-23T09:02:47;10.1;;;1.8;;
36833;SDS011;48003;52.084;5.224;2024-03-23T09:05:59;7.2;;;1.6;;
36833;SDS011;48003;52.084;5.224;2024-03-23T09:07:35;8.9;;;1.4;;
36833;SDS011;48003;52.084;5.224;2024-03-23T09:09:11;9.71;;;1.5;;
36833;SDS011;48003;52.084;5.224;2024-03-23T09:12:24;8.81;;;1.6;;
36833;SDS011;48003;52.084;5.224;2024-03-23T09:14:01;10.8;;;1.6;;
36833;SDS011;48003;52.084;5.224;2024-03-23T09:15:37;10.4;;;1.8;;
36833;SDS011;48003;52.084;5.224;2024-03-23T09:17:23;7.7;;;1.4;;
36833;SDS011;48003;52.084;5.224;2024-03-23T09:20:35;8.0;;;1.5;;
36833;SDS011;48003;52.084;5.224;2024-03-23T09:22:11;6.4;;;1.4;;
36833;SDS011;48003;52.084;5.224;2024-03-23T09:23:47;7.3;;;1.4;;
36833;SDS011;48003;52.084;5.224;2024-03-23T09:26:59;7.8;;;1.8;;
36833;SDS011;48003;52.084;5.224;2024-03-23T09:28:36;9.81;;;1.9;;
36833;SDS011;48003;52.084;5.224;2024-03-23T09:30:13;11.1;;;1.9;;
36833;SDS011;48003;52.084;5.224;2024-03-23T09:33:26;10.6;;;2.0;;
36833;SDS011;48003;52.084;5.224;2024-03-23T09:35:02;7.1;;;1.8;;
36833;SDS011;48003;52.084;5.224;2024-03-23T09:36:39;12.1;;;2.0;;
36833;SDS011;48003;52.084;5.224;2024-03-23T09:39:51;8.71;;;1.8;;
36833;SDS011;48003;52.084;5.224;2024-03-23T09:41:27;8.2;;;1.7;;
36833;SDS011;48003;52.084;5.224;2024-03-23T09:43:03;7.2;;;1.5;;
36833;SDS011;48003;52.084;5.224;2024-03-23T09:44:42;7.3;;;1.6;;
36833;SDS011;48003;52.084;5.224;2024-03-23T09:47:56;9.81;;;1.3;;
36833;SDS011;48003;52.084;5.224;2024-03-23T09:49:33;9.9;;;1.7;;
36833;SDS011;48003;52.084;5.224;2024-03-23T09:51:11;9.31;;;1.4;;
36833;SDS011;48003;52.084;5.224;2024-03-23T09:54:24;7.0;;;1.6;;
36833;SDS011;48003;52.084;5.224;2024-03-23T09:56:00;11.5;;;1.6;;
36833;SDS011;48003;52.084;5.224;2024-03-23T09:57:36;7.5;;;1.4;;
36833;SDS011;48003;52.084;5.224;2024-03-23T09:59:12;7.4;;;1.5;;
36833;SDS011;48003;52.084;5.224;2024-03-23T10:02:25;12.6;;;2.21;;
36833;SDS011;48003;52.084;5.224;2024-03-23T10:04:02;13.4;;;1.9;;
36833;SDS011;48003;52.084;5.224;2024-03-23T10:05:39;11.4;;;1.7;;
36833;SDS011;48003;52.084;5.224;2024-03-23T10:08:55;12.1;;;2.0;;
36833;SDS011;48003;52.084;5.224;2024-03-23T10:10:31;6.5;;;1.5;;
36833;SDS011;48003;52.084;5.224;2024-03-23T10:12:08;7.5;;;1.2;;
36833;SDS011;48003;52.084;5.224;2024-03-23T10:15:22;11.3;;;1.6;;
36833;SDS011;48003;52.084;5.224;2024-03-23T10:17:11;11.9;;;1.8;;
36833;SDS011;48003;52.084;5.224;2024-03-23T10:18:48;7.7;;;1.5;;
36833;SDS011;48003;52.084;5.224;2024-03-23T10:20:25;9.71;;;1.7;;
36833;SDS011;48003;52.084;5.224;2024-03-23T10:23:38;10.7;;;2.0;;
36833;SDS011;48003;52.084;5.224;2024-03-23T10:25:16;12.3;;;1.6;;
36833;SDS011;48003;52.084;5.224;2024-03-23T10:26:55;12.5;;;1.8;;
36833;SDS011;48003;52.084;5.224;2024-03-23T10:28:32;9.31;;;1.7;;
36833;SDS011;48003;52.084;5.224;2024-03-23T10:31:46;12.5;;;1.8;;
36833;SDS011;48003;52.084;5.224;2024-03-23T10:33:22;7.8;;;1.5;;
36833;SDS011;48003;52.084;5.224;2024-03-23T10:35:04;8.31;;;1.8;;
36833;SDS011;48003;52.084;5.224;2024-03-23T10:38:29;9.5;;;1.6;;
36833;SDS011;48003;52.084;5.224;2024-03-23T10:40:06;8.9;;;1.5;;
36833;SDS011;48003;52.084;5.224;2024-03-23T10:41:45;6.1;;;1.11;;
36833;SDS011;48003;52.084;5.224;2024-03-23T10:43:21;6.1;;;1.11;;
36833;SDS011;48003;52.084;5.224;2024-03-23T10:46:34;8.6;;;1.4;;
36833;SDS011;48003;52.084;5.224;2024-03-23T10:48:10;8.2;;;1.2;;
36833;SDS011;48003;52.084;5.224;2024-03-23T10:49:46;3.5;;;0.8;;
36833;SDS011;48003;52.084;5.224;2024-03-23T10:52:59;8.5;;;1.2;;
36833;SDS011;48003;52.084;5.224;2024-03-23T10:54:35;7.7;;;1.5;;
36833;SDS011;48003;52.084;5.224;2024-03-23T10:56:12;10.0;;;1.2;;
36833;SDS011;48003;52.084;5.224;2024-03-23T10:57:51;7.5;;;1.4;;
36833;SDS011;48003;52.084;5.224;2024-03-23T11:01:10;10.1;;;1.4;;
36833;SDS011;48003;52.084;5.224;2024-03-23T11:02:47;8.31;;;1.4;;
36833;SDS011;48003;52.084;5.224;2024-03-23T11:04:31;10.5;;;1.5;;
36833;SDS011;48003;52.084;5.224;2024-03-23T11:06:08;10.21;;;1.7;;
36833;SDS011;48003;52.084;5.224;2024-03-23T11:09:41;9.1;;;1.7;;
36833;SDS011;48003;52.084;5.224;2024-03-23T11:11:22;12.0;;;2.1;;
36833;SDS011;48003;52.084;5.224;2024-03-23T11:13:21;7.0;;;1.6;;
36833;SDS011;48003;52.084;5.224;2024-03-23T11:14:59;10.9;;;1.8;;
36833;SDS011;48003;52.084;5.224;2024-03-23T11:16:38;7.6;;;1.7;;
36833;SDS011;48003;52.084;5.224;2024-03-23T11:19:57;11.5;;;1.5;;
36833;SDS011;48003;52.084;5.224;2024-03-23T11:21:54;9.1;;;1.6;;
36833;SDS011;48003;52.084;5.224;2024-03-23T11:23:30;7.4;;;1.6;;
36833;SDS011;48003;52.084;5.224;2024-03-23T11:25:12;8.71;;;1.7;;
36833;SDS011;48003;52.084;5.224;2024-03-23T11:28:32;8.6;;;1.5;;
36833;SDS011;48003;52.084;5.224;2024-03-23T11:30:10;11.6;;;2.0;;
36833;SDS011;48003;52.084;5.224;2024-03-23T11:31:49;11.0;;;2.0;;
36833;SDS011;48003;52.084;5.224;2024-03-23T11:33:27;7.5;;;1.5;;
36833;SDS011;48003;52.084;5.224;2024-03-23T11:36:40;11.2;;;2.0;;
36833;SDS011;48003;52.084;5.224;2024-03-23T11:38:17;7.1;;;1.5;;
36833;SDS011;48003;52.084;5.224;2024-03-23T11:39:53;8.31;;;1.4;;
36833;SDS011;48003;52.084;5.224;2024-03-23T11:43:06;7.7;;;1.6;;
36833;SDS011;48003;52.084;5.224;2024-03-23T11:44:44;7.0;;;1.6;;
36833;SDS011;48003;52.084;5.224;2024-03-23T11:46:22;6.9;;;1.8;;
36833;SDS011;48003;52.084;5.224;2024-03-23T11:49:41;9.71;;;1.6;;
36833;SDS011;48003;52.084;5.224;2024-03-23T11:51:17;10.21;;;1.7;;
36833;SDS011;48003;52.084;5.224;2024-03-23T11:52:53;8.31;;;1.7;;
36833;SDS011;48003;52.084;5.224;2024-03-23T11:54:42;8.71;;;1.5;;
36833;SDS011;48003;52.084;5.224;2024-03-23T11:57:54;8.5;;;1.7;;
36833;SDS011;48003;52.084;5.224;2024-03-23T11:59:31;10.7;;;1.8;;
36833;SDS011;48003;52.084;5.224;2024-03-23T12:01:10;10.7;;;1.8;;
36833;SDS011;48003;52.084;5.224;2024-03-23T12:02:46;11.8;;;2.1;;
36833;SDS011;48003;52.084;5.224;2024-03-23T12:06:02;8.4;;;1.6;;
36833;SDS011;48003;52.084;5.224;2024-03-23T12:07:40;10.0;;;1.8;;
36833;SDS011;48003;52.084;5.224;2024-03-23T12:09:16;14.0;;;2.7;;
36833;SDS011;48003;52.084;5.224;2024-03-23T12:12:40;14.2;;;4.2;;
36833;SDS011;48003;52.084;5.224;2024-03-23T12:14:17;8.6;;;2.1;;
36833;SDS011;48003;52.084;5.224;2024-03-23T12:15:53;8.6;;;1.5;;
36833;SDS011;48003;52.084;5.224;2024-03-23T12:17:29;10.0;;;2.21;;
36833;SDS011;48003;52.084;5.224;2024-03-23T12:20:41;7.9;;;1.8;;
36833;SDS011;48003;52.084;5.224;2024-03-23T12:22:20;9.0;;;1.4;;
36833;SDS011;48003;52.084;5.224;2024-03-23T12:23:56;8.71;;;1.7;;
36833;SDS011;48003;52.084;5.224;2024-03-23T12:27:08;10.1;;;1.6;;
36833;SDS011;48003;52.084;5.224;2024-03-23T12:28:45;12.7;;;1.6;;
36833;SDS011;48003;52.084;5.224;2024-03-23T12:30:21;9.1;;;1.9;;
36833;SDS011;48003;52.084;5.224;2024-03-23T12:31:58;7.4;;;1.8;;
36833;SDS011;48003;52.084;5.224;2024-03-23T12:35:12;10.5;;;1.8;;
36833;SDS011;48003;52.084;5.224;2024-03-23T12:36:48;7.9;;;1.2;;
36833;SDS011;48003;52.084;5.224;2024-03-23T12:38:24;7.9;;;1.2;;
36833;SDS011;48003;52.084;5.224;2024-03-23T12:41:36;8.4;;;1.6;;
36833;SDS011;48003;52.084;5.224;2024-03-23T12:43:12;8.81;;;1.6;;
36833;SDS011;48003;52.084;5.224;2024-03-23T12:44:48;6.9;;;1.6;;
36833;SDS011;48003;52.084;5.224;2024-03-23T12:48:01;8.4;;;1.5;;
36833;SDS011;48003;52.084;5.224;2024-03-23T12:49:37;10.4;;;1.4;;
36833;SDS011;48003;52.084;5.224;2024-03-23T12:51:13;7.4;;;1.4;;
36833;SDS011;48003;52.084;5.224;2024-03-23T12:54:25;6.2;;;1.3;;
36833;SDS011;48003;52.084;5.224;2024-03-23T12:56:01;8.31;;;1.4;;
36833;SDS011;48003;52.084;5.224;2024-03-23T12:57:37;7.0;;;1.2;;
36833;SDS011;48003;52.084;5.224;2024-03-23T12:59:13;11.6;;;2.6;;
36833;SDS011;48003;52.084;5.224;2024-03-23T13:02:27;10.8;;;1.3;;
36833;SDS011;48003;52.084;5.224;2024-03-23T13:04:03;11.3;;;1.3;;
36833;SDS011;48003;52.084;5.224;2024-03-23T13:05:39;10.1;;;1.6;;
36833;SDS011;48003;52.084;5.224;2024-03-23T13:08:51;9.31;;;1.4;;
36833;SDS011;48003;52.084;5.224;2024-03-23T13:10:27;13.4;;;1.7;;
36833;SDS011;48003;52.084;5.224;2024-03-23T13:12:03;13.4;;;1.7;;
36833;SDS011;48003;52.084;5.224;2024-03-23T13:15:16;6.3;;;1.0;;
36833;SDS011;48003;52.084;5.224;2024-03-23T13:16:52;3.8;;;0.6;;
36833;SDS011;48003;52.084;5.224;2024-03-23T13:18:29;2.5;;;0.4;;
36833;SDS011;48003;52.084;5.224;2024-03-23T13:20:05;4.7;;;0.6;;
36833;SDS011;48003;52.084;5.224;2024-03-23T13:23:18;2.4;;;0.6;;
36833;SDS011;48003;52.084;5.224;2024-03-23T13:24:54;5.11;;;0.6;;
36833;SDS011;48003;52.084;5.224;2024-03-23T13:26:30;3.1;;;0.7;;
36833;SDS011;48003;52.084;5.224;2024-03-23T13:29:42;2.7;;;0.5;;
36833;SDS011;48003;52.084;5.224;2024-03-23T13:31:18;4.3;;;0.8;;
36833;SDS011;48003;52.084;5.224;2024-03-23T13:32:54;4.7;;;0.8;;
36833;SDS011;48003;52.084;5.224;2024-03-23T13:36:07;4.7;;;0.8;;
36833;SDS011;48003;52.084;5.224;2024-03-23T13:37:44;9.5;;;1.5;;
36833;SDS011;48003;52.084;5.224;2024-03-23T13:39:20;6.3;;;1.0;;